Time;durP1;ratioP1;P1;durP2;ratioP2;P2;SDS_P1;SDS_P2;PMS_P1;PMS_P2;Temp;Humidity;BMP_temperature;BMP_pressure;BME280_temperature;BME280_humidity;BME280_pressure;Samples;Min_cycle;Max_cycle;Signal;HPM_P1;HPM_P2
2022/12/19 00:01:01;;;;;;;27.55;9.70;;;-5.70;99.90;;;;;;5001888;28;20044;-81
2022/12/19 00:03:27;;;;;;;30.80;12.10;;;-5.70;99.90;;;;;;4989473;28;20028;-83
2022/12/19 00:05:53;;;;;;;33.45;11.25;;;-5.70;99.90;;;;;;4969562;28;20034;-82
2022/12/19 00:08:18;;;;;;;25.65;9.20;;;-5.70;99.90;;;;;;5006743;28;20042;-83
2022/12/19 00:10:58;;;;;;;23.80;8.90;;;-5.70;99.90;;;;;;4977776;28;20053;-83
2022/12/19 00:13:24;;;;;;;36.38;12.20;;;-5.70;99.90;;;;;;5007771;28;20045;-83
2022/12/19 00:15:50;;;;;;;26.25;11.45;;;-5.70;99.90;;;;;;5009804;28;20042;-84
2022/12/19 00:18:16;;;;;;;23.42;8.82;;;-5.70;99.90;;;;;;5018493;28;20029;-84
2022/12/19 00:20:42;;;;;;;21.63;8.35;;;-5.70;99.90;;;;;;5007979;28;20084;-83
2022/12/19 00:23:08;;;;;;;20.02;7.50;;;-5.70;99.90;;;;;;5006721;28;20032;-83
2022/12/19 00:25:34;;;;;;;19.17;7.72;;;-5.70;99.90;;;;;;4972968;28;20116;-83
2022/12/19 00:27:59;;;;;;;22.45;9.82;;;-5.70;99.90;;;;;;5008657;28;20049;-82
2022/12/19 00:30:25;;;;;;;27.27;11.35;;;-5.70;99.90;;;;;;5008747;28;20038;-83
2022/12/19 00:32:51;;;;;;;34.75;12.38;;;-5.70;99.90;;;;;;5010093;28;20061;-84
2022/12/19 00:35:19;;;;;;;34.08;12.77;;;-5.70;99.90;;;;;;4992673;28;20027;-83
2022/12/19 00:37:45;;;;;;;29.02;10.20;;;-5.70;99.90;;;;;;4994378;28;20373;-83
2022/12/19 00:40:11;;;;;;;25.52;10.45;;;-5.80;99.90;;;;;;4993196;28;20038;-84
2022/12/19 00:42:37;;;;;;;27.45;10.80;;;-5.80;99.90;;;;;;4997529;28;20592;-84
2022/12/19 00:45:03;;;;;;;24.23;10.05;;;-5.80;99.90;;;;;;5010417;28;20045;-85
2022/12/19 00:47:29;;;;;;;28.25;10.57;;;-5.90;99.90;;;;;;5009057;28;20030;-83
2022/12/19 00:49:55;;;;;;;30.70;11.38;;;-5.90;99.90;;;;;;4992231;28;20076;-84
2022/12/19 00:52:21;;;;;;;34.35;10.65;;;-5.90;99.90;;;;;;4994480;28;20078;-83
2022/12/19 00:54:46;;;;;;;29.27;11.50;;;-5.90;99.90;;;;;;4994066;28;20125;-83
2022/12/19 00:57:12;;;;;;;33.33;11.90;;;-5.90;99.90;;;;;;4997829;28;20054;-84
2022/12/19 00:59:39;;;;;;;35.83;12.77;;;-5.90;99.90;;;;;;5009972;28;20022;-83
2022/12/19 01:02:05;;;;;;;29.05;10.82;;;-5.90;99.90;;;;;;4992815;28;20033;-82
2022/12/19 01:04:31;;;;;;;29.17;11.82;;;-5.90;99.90;;;;;;4992674;28;20125;-82
2022/12/19 01:06:57;;;;;;;32.28;12.18;;;-6.00;99.90;;;;;;4992608;28;20133;-83
2022/12/19 01:09:23;;;;;;;35.22;12.70;;;-6.00;99.90;;;;;;5006689;28;20422;-82
2022/12/19 01:14:33;;;;;;;30.65;11.18;;;-6.00;99.90;;;;;;5027836;28;20101;-82
2022/12/19 01:16:59;;;;;;;31.27;13.30;;;-6.00;99.90;;;;;;5014776;28;20506;-83
2022/12/19 01:19:26;;;;;;;32.92;11.73;;;-6.00;99.90;;;;;;5014056;28;20034;-82
2022/12/19 01:21:52;;;;;;;34.95;12.40;;;-6.10;99.90;;;;;;5021441;28;20094;-83
2022/12/19 01:24:18;;;;;;;30.17;12.18;;;-6.10;99.90;;;;;;5012742;28;20702;-83
2022/12/19 01:26:44;;;;;;;29.08;12.32;;;-6.10;99.90;;;;;;5014300;28;20119;-82
2022/12/19 01:29:11;;;;;;;33.05;12.20;;;-6.10;99.90;;;;;;4996586;28;20034;-84
2022/12/19 01:31:37;;;;;;;29.13;11.90;;;-6.10;99.90;;;;;;4996327;28;20037;-83
2022/12/19 01:34:02;;;;;;;31.13;12.48;;;-6.10;99.90;;;;;;4993520;28;20027;-83
2022/12/19 01:36:28;;;;;;;34.05;12.10;;;-6.10;99.90;;;;;;5004636;28;20510;-83
2022/12/19 01:38:57;;;;;;;26.17;10.27;;;-6.10;99.90;;;;;;4996737;28;20041;-82
2022/12/19 01:41:26;;;;;;;27.45;11.73;;;-6.00;99.90;;;;;;4993395;28;20038;-81
2022/12/19 01:44:19;;;;;;;28.67;12.63;;;-6.00;99.90;;;;;;4994087;28;20034;-82
2022/12/19 01:46:57;;;;;;;31.25;12.80;;;-6.00;99.90;;;;;;5005383;28;20038;-83
2022/12/19 01:49:37;;;;;;;28.45;10.88;;;-6.00;99.90;;;;;;4979463;28;20423;-82
2022/12/19 01:52:06;;;;;;;30.58;12.05;;;-6.00;99.90;;;;;;5012726;28;20064;-83
2022/12/19 01:54:37;;;;;;;24.02;10.82;;;-5.90;99.90;;;;;;5011863;28;20061;-84
2022/12/19 01:57:09;;;;;;;28.95;11.57;;;-5.90;99.90;;;;;;4999030;28;20029;-82
2022/12/19 01:59:41;;;;;;;31.52;10.90;;;-5.90;99.90;;;;;;4994688;28;20034;-83
2022/12/19 02:02:15;;;;;;;31.58;12.30;;;-5.90;99.90;;;;;;5006649;28;20039;-83
2022/12/19 02:04:46;;;;;;;30.45;10.80;;;-5.90;99.90;;;;;;4994754;28;20065;-84
2022/12/19 02:07:13;;;;;;;22.25;9.52;;;-5.90;99.90;;;;;;5014855;28;20022;-83
2022/12/19 02:09:39;;;;;;;23.45;9.98;;;-5.90;99.90;;;;;;5012751;28;20756;-84
2022/12/19 02:12:05;;;;;;;27.63;9.90;;;-5.90;99.90;;;;;;5016441;28;20060;-83
2022/12/19 02:14:35;;;;;;;32.35;12.05;;;-5.90;99.90;;;;;;5027555;28;20125;-83
2022/12/19 02:17:11;;;;;;;30.55;11.68;;;-5.90;99.90;;;;;;4982310;28;20111;-84
2022/12/19 02:19:57;;;;;;;24.52;9.93;;;-5.90;99.90;;;;;;5029107;28;20053;-82
2022/12/19 02:22:42;;;;;;;31.52;11.05;;;-5.90;99.90;;;;;;5009928;28;20054;-84
2022/12/19 02:25:35;;;;;;;31.65;11.55;;;-5.90;99.90;;;;;;5007705;28;20030;-84
2022/12/19 02:28:43;;;;;;;27.80;11.38;;;-5.90;99.90;;;;;;5011839;28;20442;-81
2022/12/19 02:31:29;;;;;;;34.00;11.75;;;-5.90;99.90;;;;;;4984064;28;20038;-83
2022/12/19 02:34:13;;;;;;;32.08;12.90;;;-5.90;99.90;;;;;;5006241;28;20033;-83
2022/12/19 02:37:22;;;;;;;34.15;11.25;;;-5.90;99.90;;;;;;4996955;28;20030;-84
2022/12/19 02:40:10;;;;;;;27.67;12.38;;;-5.90;99.90;;;;;;4967763;28;20495;-83
2022/12/19 02:42:40;;;;;;;28.55;10.75;;;-5.90;99.90;;;;;;5008191;28;20030;-84
2022/12/19 02:45:10;;;;;;;30.45;12.55;;;-5.90;99.90;;;;;;5013001;28;20041;-83
2022/12/19 02:47:37;;;;;;;30.73;11.38;;;-5.80;99.90;;;;;;5010620;28;20027;-83
2022/12/19 02:50:04;;;;;;;37.30;13.00;;;-5.80;99.90;;;;;;5010819;28;20029;-83
2022/12/19 02:52:30;;;;;;;21.80;9.73;;;-5.80;99.90;;;;;;5013372;28;20108;-80
2022/12/19 02:55:00;;;;;;;27.25;11.10;;;-5.80;99.90;;;;;;5012737;28;20478;-84
2022/12/19 02:57:44;;;;;;;26.15;11.55;;;-5.80;99.90;;;;;;5029250;28;20029;-82
2022/12/19 03:00:19;;;;;;;28.42;12.07;;;-5.80;99.90;;;;;;5002300;28;20033;-84
2022/12/19 03:03:16;;;;;;;28.85;12.50;;;-5.80;99.90;;;;;;4995466;28;20112;-84
2022/12/19 03:06:11;;;;;;;28.40;10.38;;;-5.70;99.90;;;;;;5014231;28;20083;-83
2022/12/19 03:09:05;;;;;;;28.65;12.50;;;-5.80;99.90;;;;;;4985603;28;20034;-82
2022/12/19 03:11:38;;;;;;;30.08;11.07;;;-5.70;99.90;;;;;;4968953;28;20073;-84
2022/12/19 03:14:11;;;;;;;23.92;10.10;;;-5.80;99.90;;;;;;5011996;28;20053;-83
2022/12/19 03:16:37;;;;;;;31.30;12.52;;;-5.80;99.90;;;;;;5008896;28;20038;-82
2022/12/19 03:19:09;;;;;;;23.67;8.88;;;-5.80;99.90;;;;;;5005141;28;20041;-86
2022/12/19 03:21:42;;;;;;;34.25;13.90;;;-5.80;99.90;;;;;;5000480;28;20044;-84
2022/12/19 03:24:10;;;;;;;32.42;13.70;;;-5.80;99.90;;;;;;5001052;28;20026;-81
2022/12/19 03:26:44;;;;;;;38.05;12.63;;;-5.70;99.90;;;;;;5011712;28;20030;-84
2022/12/19 03:29:25;;;;;;;37.38;13.50;;;-5.70;99.90;;;;;;5011600;28;20022;-82
2022/12/19 03:31:53;;;;;;;25.63;10.07;;;-5.70;99.90;;;;;;5007591;28;20478;-85
2022/12/19 03:34:24;;;;;;;35.17;13.52;;;-5.70;99.90;;;;;;5004306;28;20690;-83
2022/12/19 03:36:56;;;;;;;37.75;13.57;;;-5.70;99.90;;;;;;5020766;28;20042;-84
2022/12/19 03:39:25;;;;;;;37.20;12.52;;;-5.60;99.90;;;;;;4980865;28;20034;-84
2022/12/19 03:44:41;;;;;;;32.60;11.23;;;-5.60;99.90;;;;;;5007374;28;20498;-84
2022/12/19 03:47:15;;;;;;;34.05;12.80;;;-5.60;99.90;;;;;;4996928;28;20114;-82
2022/12/19 03:49:41;;;;;;;30.60;12.98;;;-5.60;99.90;;;;;;5011152;28;20487;-81
2022/12/19 03:52:27;;;;;;;26.77;12.55;;;-5.50;99.90;;;;;;5010480;28;20100;-84
2022/12/19 03:55:31;;;;;;;25.65;11.10;;;-5.60;99.90;;;;;;5005639;28;20553;-83
2022/12/19 03:58:08;;;;;;;28.60;9.55;;;-5.50;99.90;;;;;;4986369;28;20034;-85
2022/12/19 04:00:36;;;;;;;29.13;10.77;;;-5.50;99.90;;;;;;4991542;28;20030;-83
2022/12/19 04:03:05;;;;;;;23.95;8.23;;;-5.50;99.90;;;;;;4993773;28;20048;-83
2022/12/19 04:05:32;;;;;;;30.70;11.77;;;-5.50;99.90;;;;;;5009096;28;20124;-83
2022/12/19 04:08:03;;;;;;;34.33;11.77;;;-5.60;99.90;;;;;;4995422;28;20430;-83
2022/12/19 04:10:29;;;;;;;30.27;9.60;;;-5.50;99.90;;;;;;5010317;28;20046;-83
2022/12/19 04:13:22;;;;;;;30.55;10.90;;;-5.50;99.90;;;;;;4995107;28;20644;-82
2022/12/19 04:15:55;;;;;;;28.27;11.98;;;-5.50;99.90;;;;;;5004450;28;20097;-82
2022/12/19 04:18:22;;;;;;;34.55;13.77;;;-5.50;99.90;;;;;;4992591;28;20030;-82
2022/12/19 04:21:00;;;;;;;38.40;16.20;;;-5.50;99.90;;;;;;5000262;28;20038;-84
2022/12/19 04:23:40;;;;;;;32.60;12.57;;;-5.50;99.90;;;;;;5012137;28;20125;-83
2022/12/19 04:26:10;;;;;;;34.63;13.50;;;-5.50;99.90;;;;;;5009298;28;20104;-82
2022/12/19 04:28:49;;;;;;;26.30;9.52;;;-5.50;99.90;;;;;;5010578;28;20038;-84
2022/12/19 04:31:16;;;;;;;19.65;6.65;;;-5.40;99.90;;;;;;4993906;28;20030;-84
2022/12/19 04:33:42;;;;;;;30.52;12.68;;;-5.40;99.90;;;;;;4990524;28;20034;-83
2022/12/19 04:36:09;;;;;;;27.05;10.32;;;-5.50;99.90;;;;;;5007555;28;20088;-82
2022/12/19 04:38:35;;;;;;;26.75;10.48;;;-5.50;99.90;;;;;;5010141;28;20031;-83
2022/12/19 04:41:01;;;;;;;31.30;12.48;;;-5.50;99.90;;;;;;4997417;28;20061;-84
2022/12/19 04:43:27;;;;;;;34.72;13.00;;;-5.40;99.90;;;;;;4971332;28;20524;-84
2022/12/19 04:45:53;;;;;;;36.53;12.00;;;-5.40;99.90;;;;;;5010947;28;20144;-83
2022/12/19 04:48:19;;;;;;;34.03;12.25;;;-5.40;99.90;;;;;;5011546;28;20026;-84
2022/12/19 04:50:45;;;;;;;27.88;11.32;;;-5.40;99.90;;;;;;4995370;28;20080;-83
2022/12/19 04:53:11;;;;;;;39.20;14.52;;;-5.40;99.90;;;;;;4996294;28;20117;-83
2022/12/19 04:55:44;;;;;;;33.13;13.85;;;-5.40;99.90;;;;;;4995448;28;20112;-85
2022/12/19 04:58:11;;;;;;;40.50;15.23;;;-5.40;99.90;;;;;;5013135;28;20475;-83
2022/12/19 05:00:37;;;;;;;43.78;14.88;;;-5.40;99.90;;;;;;5010319;28;20486;-84
2022/12/19 05:03:03;;;;;;;35.47;15.45;;;-5.40;99.90;;;;;;4998121;28;20022;-83
2022/12/19 05:05:29;;;;;;;38.13;14.52;;;-5.30;99.90;;;;;;5014853;28;20045;-82
2022/12/19 05:07:58;;;;;;;31.50;12.27;;;-5.40;99.90;;;;;;4997467;28;20033;-84
2022/12/19 05:10:23;;;;;;;44.28;15.32;;;-5.30;99.90;;;;;;5012055;28;20053;-84
2022/12/19 05:12:49;;;;;;;38.60;13.75;;;-5.30;99.90;;;;;;5012137;28;20542;-82
2022/12/19 05:15:15;;;;;;;32.85;12.55;;;-5.30;99.90;;;;;;5030124;28;20045;-83
2022/12/19 05:17:41;;;;;;;34.67;12.93;;;-5.30;99.90;;;;;;5013666;28;20093;-82
2022/12/19 05:20:08;;;;;;;32.28;13.68;;;-5.40;99.90;;;;;;4999101;28;20463;-84
2022/12/19 05:22:34;;;;;;;36.38;13.77;;;-5.40;99.90;;;;;;4982081;28;20040;-85
2022/12/19 05:25:00;;;;;;;39.90;14.35;;;-5.40;99.90;;;;;;5012590;28;20137;-84
2022/12/19 05:27:26;;;;;;;39.00;14.70;;;-5.40;99.90;;;;;;4999154;28;20029;-83
2022/12/19 05:29:51;;;;;;;35.00;14.63;;;-5.40;99.90;;;;;;5011662;28;20041;-84
2022/12/19 05:32:17;;;;;;;23.98;11.40;;;-5.30;99.90;;;;;;4995114;28;20128;-83
2022/12/19 05:34:43;;;;;;;32.60;12.43;;;-5.30;99.90;;;;;;4998942;28;20067;-85
2022/12/19 05:37:09;;;;;;;33.72;14.25;;;-5.20;99.90;;;;;;5013496;28;20125;-83
2022/12/19 05:39:34;;;;;;;28.67;11.23;;;-5.20;99.90;;;;;;4998144;28;20037;-84
2022/12/19 05:42:00;;;;;;;29.25;9.43;;;-5.10;99.90;;;;;;4998281;28;20064;-83
2022/12/19 05:44:26;;;;;;;28.48;11.95;;;-5.10;99.90;;;;;;4999815;28;20074;-81
2022/12/19 05:46:52;;;;;;;38.80;14.80;;;-5.10;99.90;;;;;;5004017;28;20035;-83
2022/12/19 05:49:18;;;;;;;39.42;14.80;;;-5.10;99.90;;;;;;4999382;28;20364;-84
2022/12/19 05:51:47;;;;;;;34.92;13.00;;;-5.10;99.90;;;;;;5016400;28;20040;-84
2022/12/19 05:54:12;;;;;;;29.98;12.48;;;-5.00;99.90;;;;;;4994869;28;20026;-82
2022/12/19 05:56:38;;;;;;;34.97;14.23;;;-5.00;99.90;;;;;;4981386;28;20545;-83
2022/12/19 05:59:04;;;;;;;32.13;13.15;;;-5.00;99.90;;;;;;4997764;28;20030;-81
2022/12/19 06:01:31;;;;;;;35.28;14.38;;;-5.00;99.90;;;;;;4994002;28;20767;-83
2022/12/19 06:03:57;;;;;;;40.15;14.00;;;-5.00;99.90;;;;;;4997725;28;20041;-83
2022/12/19 06:06:25;;;;;;;39.05;13.82;;;-5.00;99.90;;;;;;4988959;28;20038;-82
2022/12/19 06:08:58;;;;;;;37.38;14.15;;;-5.10;99.90;;;;;;4997387;28;21864;-83
2022/12/19 06:11:25;;;;;;;27.45;10.85;;;-5.10;99.90;;;;;;4995406;28;20053;-83
2022/12/19 06:13:51;;;;;;;33.70;14.05;;;-5.00;99.90;;;;;;5026949;28;20089;-82
2022/12/19 06:16:19;;;;;;;34.97;14.07;;;-5.10;99.90;;;;;;4997886;28;20033;-82
2022/12/19 06:18:46;;;;;;;36.28;14.23;;;-5.10;99.90;;;;;;4996619;28;20041;-83
2022/12/19 06:21:14;;;;;;;40.75;15.77;;;-5.10;99.90;;;;;;4996847;28;20042;-82
2022/12/19 06:23:41;;;;;;;35.42;12.52;;;-5.00;99.90;;;;;;4994236;28;20060;-83
2022/12/19 06:26:07;;;;;;;40.00;13.90;;;-5.00;99.90;;;;;;4991903;28;20053;-83
2022/12/19 06:28:34;;;;;;;34.88;13.18;;;-4.90;99.90;;;;;;4979559;28;20039;-83
2022/12/19 06:31:02;;;;;;;37.42;12.85;;;-4.90;99.90;;;;;;5030612;28;20034;-82
2022/12/19 06:33:29;;;;;;;38.35;13.07;;;-4.90;99.90;;;;;;4997259;28;20477;-84
2022/12/19 06:36:04;;;;;;;46.13;16.08;;;-4.90;99.90;;;;;;4999862;28;20113;-83
2022/12/19 06:38:30;;;;;;;;;;;-4.90;99.90;;;;;;5011027;28;20041;-82
2022/12/19 06:43:41;;;;;;;29.98;12.30;;;-4.90;99.90;;;;;;5023858;28;20042;-83
2022/12/19 06:46:08;;;;;;;40.03;14.13;;;-4.90;99.90;;;;;;4996538;28;20040;-86
2022/12/19 06:48:34;;;;;;;37.15;14.25;;;-4.90;99.90;;;;;;5011576;28;20058;-85
2022/12/19 06:51:00;;;;;;;38.33;14.73;;;-4.90;99.90;;;;;;5011942;28;20498;-82
2022/12/19 06:53:26;;;;;;;39.22;14.77;;;-4.90;99.90;;;;;;5028886;28;20021;-83
2022/12/19 06:55:56;;;;;;;45.50;16.10;;;-4.80;99.90;;;;;;4998627;28;20037;-83
2022/12/19 06:58:22;;;;;;;36.35;16.75;;;-4.80;99.90;;;;;;5008577;28;20033;-82
2022/12/19 07:00:48;;;;;;;42.38;16.80;;;-4.80;99.90;;;;;;4994447;28;20034;-83
2022/12/19 07:03:17;;;;;;;38.55;16.00;;;-4.70;99.90;;;;;;5011418;28;20415;-82
2022/12/19 07:05:43;;;;;;;37.97;15.20;;;-4.70;99.90;;;;;;4993882;28;20120;-83
2022/12/19 07:08:10;;;;;;;34.83;13.00;;;-4.70;99.90;;;;;;4993300;28;20125;-82
2022/12/19 07:10:36;;;;;;;35.47;14.35;;;-4.70;99.90;;;;;;5027798;28;20068;-83
2022/12/19 07:13:03;;;;;;;21.20;8.93;;;-4.70;99.90;;;;;;5024946;28;20371;-84
2022/12/19 07:15:30;;;;;;;31.83;13.98;;;-4.70;99.90;;;;;;5026084;28;20609;-83
2022/12/19 07:17:58;;;;;;;40.22;14.05;;;-4.70;99.90;;;;;;5012901;28;20034;-83
2022/12/19 07:20:24;;;;;;;36.38;13.77;;;-4.70;99.90;;;;;;4994925;28;20530;-83
2022/12/19 07:22:51;;;;;;;35.17;13.63;;;-4.60;99.90;;;;;;5010061;28;20410;-83
2022/12/19 07:25:17;;;;;;;37.85;15.20;;;-4.60;99.90;;;;;;5009475;28;20044;-83
2022/12/19 07:27:43;;;;;;;41.38;14.95;;;-4.60;99.90;;;;;;5011864;28;20030;-84
2022/12/19 07:30:10;;;;;;;44.63;15.50;;;-4.50;99.90;;;;;;4998035;28;20042;-83
2022/12/19 07:32:38;;;;;;;36.33;13.52;;;-4.50;99.90;;;;;;4995686;28;20364;-83
2022/12/19 07:35:05;;;;;;;37.08;14.55;;;-4.50;99.90;;;;;;5005210;28;20045;-83
2022/12/19 07:37:31;;;;;;;36.92;14.13;;;-4.60;99.90;;;;;;5020894;28;20401;-83
2022/12/19 07:39:57;;;;;;;33.53;14.95;;;-4.60;99.90;;;;;;4996686;28;20033;-84
2022/12/19 07:42:23;;;;;;;37.63;14.48;;;-4.50;99.90;;;;;;5010801;28;20029;-83
2022/12/19 07:44:49;;;;;;;38.60;16.38;;;-4.50;99.90;;;;;;5011019;28;20044;-83
2022/12/19 07:47:14;;;;;;;38.90;14.88;;;-4.50;99.90;;;;;;5028172;28;20124;-82
2022/12/19 07:49:40;;;;;;;34.90;14.73;;;-4.50;99.90;;;;;;4994802;28;20034;-83
2022/12/19 07:52:07;;;;;;;35.92;14.93;;;-4.40;99.90;;;;;;5009683;28;20124;-82
2022/12/19 07:54:33;;;;;;;39.75;16.02;;;-4.40;99.90;;;;;;5003274;28;20030;-83
2022/12/19 07:57:00;;;;;;;44.92;15.73;;;-4.40;99.90;;;;;;4992565;28;20084;-84
2022/12/19 07:59:26;;;;;;;43.58;15.75;;;-4.40;99.90;;;;;;4976559;28;20021;-83
2022/12/19 08:01:53;;;;;;;45.80;16.98;;;-4.30;99.90;;;;;;4995266;28;20413;-82
2022/12/19 08:04:21;;;;;;;39.63;15.23;;;-4.30;99.90;;;;;;5008473;28;20037;-81
2022/12/19 08:06:47;;;;;;;37.55;15.93;;;-4.30;99.90;;;;;;4989192;28;20030;-83
2022/12/19 08:09:13;;;;;;;30.30;12.35;;;-4.30;99.90;;;;;;5010656;28;20037;-82
2022/12/19 08:11:39;;;;;;;41.35;14.63;;;-4.20;99.90;;;;;;4981501;28;20036;-83
2022/12/19 08:14:04;;;;;;;35.10;15.10;;;-4.20;99.90;;;;;;4990127;28;20025;-83
2022/12/19 08:16:31;;;;;;;36.70;14.27;;;-4.10;99.90;;;;;;4991890;28;20026;-84
2022/12/19 08:18:56;;;;;;;40.53;16.30;;;-4.10;99.90;;;;;;4989167;28;20022;-83
2022/12/19 08:21:23;;;;;;;44.17;15.63;;;-4.10;99.90;;;;;;5024570;28;20038;-84
2022/12/19 08:23:49;;;;;;;40.08;16.95;;;-4.10;99.90;;;;;;5007938;28;20515;-83
2022/12/19 08:26:25;;;;;;;37.65;15.95;;;-4.00;99.90;;;;;;5006923;28;20030;-83
2022/12/19 08:28:54;;;;;;;38.55;16.23;;;-4.00;99.90;;;;;;5016129;28;20087;-84
2022/12/19 08:31:23;;;;;;;38.05;14.50;;;-4.00;99.90;;;;;;4991688;28;20118;-84
2022/12/19 08:33:50;;;;;;;42.13;16.25;;;-4.00;99.90;;;;;;4988373;28;20034;-83
2022/12/19 08:36:18;;;;;;;48.33;18.17;;;-4.00;99.90;;;;;;4989266;28;20038;-83
2022/12/19 08:38:45;;;;;;;43.55;16.52;;;-3.90;99.90;;;;;;4991417;28;20018;-85
2022/12/19 08:41:11;;;;;;;44.63;17.13;;;-3.90;99.90;;;;;;4993756;28;20129;-84
2022/12/19 08:43:39;;;;;;;38.78;15.80;;;-3.90;99.90;;;;;;4987486;28;20034;-83
2022/12/19 08:46:06;;;;;;;44.13;17.30;;;-3.90;99.90;;;;;;4977967;28;20030;-85
2022/12/19 08:48:33;;;;;;;44.67;16.88;;;-3.80;99.90;;;;;;5004758;28;20069;-84
2022/12/19 08:51:02;;;;;;;39.50;16.40;;;-3.80;99.90;;;;;;5016143;28;20045;-84
2022/12/19 08:53:30;;;;;;;39.65;15.73;;;-3.70;99.90;;;;;;5007704;28;20499;-84
2022/12/19 08:55:57;;;;;;;39.47;16.15;;;-3.70;99.90;;;;;;4986959;28;20737;-84
2022/12/19 08:58:24;;;;;;;45.67;16.95;;;-3.60;99.90;;;;;;5022984;28;20115;-84
2022/12/19 09:00:52;;;;;;;41.45;17.05;;;-3.60;99.90;;;;;;4990591;28;20037;-86
2022/12/19 09:03:19;;;;;;;42.97;16.88;;;-3.60;99.90;;;;;;4985677;28;20057;-84
2022/12/19 09:05:50;;;;;;;41.75;16.75;;;-3.60;99.90;;;;;;5002686;28;20121;-84
2022/12/19 09:08:16;;;;;;;44.22;17.13;;;-3.50;99.90;;;;;;5002775;28;20030;-84
2022/12/19 09:10:42;;;;;;;39.35;16.17;;;-3.50;99.90;;;;;;4987319;28;20026;-85
2022/12/19 09:13:07;;;;;;;40.92;16.02;;;-3.50;99.90;;;;;;4984843;28;20557;-85
2022/12/19 09:15:33;;;;;;;32.67;14.57;;;-3.40;99.90;;;;;;4971197;28;20026;-85
2022/12/19 09:17:59;;;;;;;40.53;17.13;;;-3.50;99.90;;;;;;5004335;28;20077;-84
2022/12/19 09:20:25;;;;;;;47.30;17.70;;;-3.50;99.90;;;;;;4988065;28;20743;-83
2022/12/19 09:22:51;;;;;;;45.65;16.90;;;-3.50;99.90;;;;;;4986509;28;20034;-83
2022/12/19 09:25:16;;;;;;;44.65;17.85;;;-3.50;99.90;;;;;;4988521;28;20026;-84
2022/12/19 09:27:42;;;;;;;43.00;15.80;;;-3.50;99.90;;;;;;4989731;28;20061;-84
2022/12/19 09:30:11;;;;;;;43.00;14.63;;;-3.40;99.90;;;;;;4987897;28;20042;-85
2022/12/19 09:32:37;;;;;;;41.58;15.25;;;-3.40;99.90;;;;;;5012959;28;20034;-85
2022/12/19 09:35:04;;;;;;;41.75;16.85;;;-3.40;99.90;;;;;;4963709;28;20034;-85
2022/12/19 09:37:39;;;;;;;38.35;16.77;;;-3.40;99.90;;;;;;5009209;28;20038;-84
2022/12/19 09:40:05;;;;;;;40.40;16.23;;;-3.40;99.90;;;;;;5008174;28;20028;-84
2022/12/19 09:42:58;;;;;;;38.33;16.88;;;-3.40;99.90;;;;;;4993575;28;20088;-85
2022/12/19 09:45:54;;;;;;;38.00;15.07;;;-3.30;99.90;;;;;;5008917;28;20060;-84
2022/12/19 09:48:21;;;;;;;42.38;14.98;;;-3.30;99.90;;;;;;5021002;28;20030;-84
2022/12/19 09:51:24;;;;;;;38.38;15.60;;;-3.20;99.90;;;;;;5023039;28;20673;-86
2022/12/19 09:54:11;;;;;;;45.45;17.45;;;-3.20;99.90;;;;;;4988701;28;20065;-85
2022/12/19 09:56:39;;;;;;;39.13;16.38;;;-3.20;99.90;;;;;;5006043;28;20022;-85
2022/12/19 09:59:18;;;;;;;43.33;17.48;;;-3.20;99.90;;;;;;4991644;28;20048;-85
2022/12/19 10:02:11;;;;;;;47.70;17.42;;;-3.10;99.90;;;;;;4991817;28;20034;-85
2022/12/19 10:04:46;;;;;;;41.90;18.15;;;-3.10;99.90;;;;;;5005737;28;20053;-84
2022/12/19 10:07:12;;;;;;;41.78;16.88;;;-3.10;99.90;;;;;;5003672;28;20033;-85
2022/12/19 10:09:38;;;;;;;36.00;14.73;;;-3.10;99.90;;;;;;5006763;28;20029;-85
2022/12/19 10:12:26;;;;;;;36.53;14.90;;;-3.10;99.90;;;;;;4985183;28;20500;-85
2022/12/19 10:15:13;;;;;;;36.17;13.50;;;-3.00;99.90;;;;;;5008680;28;20478;-86
2022/12/19 10:18:04;;;;;;;42.05;16.73;;;-3.00;99.90;;;;;;5019993;28;20025;-85
2022/12/19 10:20:37;;;;;;;37.92;15.60;;;-3.00;99.90;;;;;;5007200;28;20025;-84
2022/12/19 10:23:34;;;;;;;37.47;17.02;;;-3.00;99.90;;;;;;5037035;22;20054;-79
2022/12/19 10:26:03;;;;;;;40.85;17.20;;;-2.90;99.90;;;;;;5012139;28;20068;-79
2022/12/19 10:28:50;;;;;;;31.70;13.70;;;-2.90;99.90;;;;;;5007757;28;20628;-80
2022/12/19 10:31:31;;;;;;;17.60;8.15;;;-2.80;99.90;;;;;;5008181;28;20022;-80
2022/12/19 10:34:12;;;;;;;43.50;15.80;;;-2.80;99.90;;;;;;4993410;28;20108;-80
2022/12/19 10:36:47;;;;;;;43.95;16.77;;;-2.80;99.90;;;;;;5008824;28;20033;-79
2022/12/19 10:39:30;;;;;;;47.33;18.13;;;-2.70;99.90;;;;;;5010390;28;20029;-80
2022/12/19 10:42:13;;;;;;;42.42;17.35;;;-2.70;99.90;;;;;;5015908;28;20176;-80
2022/12/19 10:44:42;;;;;;;47.13;16.95;;;-2.70;99.90;;;;;;5009397;28;20030;-80
2022/12/19 10:47:14;;;;;;;40.92;17.48;;;-2.70;99.90;;;;;;5009292;28;20033;-79
2022/12/19 10:49:40;;;;;;;46.65;17.38;;;-2.60;99.90;;;;;;5007229;28;20042;-80
2022/12/19 10:52:08;;;;;;;52.47;19.15;;;-2.60;99.90;;;;;;5009079;28;20121;-79
2022/12/19 10:54:38;;;;;;;40.55;16.85;;;-2.60;99.90;;;;;;5009462;28;20058;-80
2022/12/19 10:57:18;;;;;;;44.75;17.17;;;-2.50;99.90;;;;;;5013116;28;20087;-80
2022/12/19 11:00:13;;;;;;;43.60;17.17;;;-2.50;99.90;;;;;;5013416;28;20025;-80
2022/12/19 11:03:13;;;;;;;38.80;14.75;;;-2.50;99.90;;;;;;5025177;28;20026;-80
2022/12/19 11:05:47;;;;;;;39.05;16.20;;;-2.40;99.90;;;;;;5010647;28;20030;-80
2022/12/19 11:08:20;;;;;;;52.85;18.52;;;-2.40;99.90;;;;;;5007291;28;20034;-80
2022/12/19 11:10:48;;;;;;;40.70;16.77;;;-2.40;99.90;;;;;;5026433;28;20088;-79
2022/12/19 11:13:31;;;;;;;43.50;18.92;;;-2.40;99.90;;;;;;5008781;28;20030;-80
2022/12/19 11:15:59;;;;;;;39.78;16.52;;;-2.40;99.90;;;;;;5005936;28;20659;-80
2022/12/19 11:18:37;;;;;;;54.03;20.65;;;-2.30;99.90;;;;;;4993456;28;20037;-80
2022/12/19 11:21:05;;;;;;;46.00;17.13;;;-2.30;99.90;;;;;;5009119;28;20115;-80
2022/12/19 11:23:33;;;;;;;42.38;17.65;;;-2.20;99.90;;;;;;5007149;28;20061;-80
2022/12/19 11:26:05;;;;;;;46.40;17.33;;;-2.20;99.90;;;;;;4974540;28;20062;-80
2022/12/19 11:28:36;;;;;;;45.47;17.00;;;-2.20;99.90;;;;;;5011548;28;20612;-79
2022/12/19 11:31:22;;;;;;;45.00;19.52;;;-2.10;99.90;;;;;;5009559;28;20291;-80
2022/12/19 11:34:02;;;;;;;50.13;18.00;;;-2.10;99.90;;;;;;5011414;28;20030;-80
2022/12/19 11:36:48;;;;;;;38.47;17.20;;;-2.10;99.90;;;;;;5011028;28;20053;-80
2022/12/19 11:39:29;;;;;;;47.58;19.00;;;-2.00;99.90;;;;;;5010167;28;20022;-80
2022/12/19 11:42:05;;;;;;;54.00;19.75;;;-2.00;99.90;;;;;;5007193;28;20034;-80
2022/12/19 11:45:01;;;;;;;45.35;18.83;;;-2.00;99.90;;;;;;5022123;28;20030;-80
2022/12/19 11:47:34;;;;;;;46.42;19.17;;;-2.00;99.90;;;;;;5015574;28;20036;-80
2022/12/19 11:50:14;;;;;;;47.25;17.52;;;-1.90;99.90;;;;;;5004135;28;20573;-80
2022/12/19 11:52:49;;;;;;;45.10;18.95;;;-1.90;99.90;;;;;;5009210;28;20064;-80
2022/12/19 11:55:33;;;;;;;;;;;-1.90;99.90;;;;;;5008233;28;20058;-80
2022/12/19 11:57:59;;;;;;;43.78;16.40;;;-1.90;99.90;;;;;;5011733;28;19920;-80
2022/12/19 12:00:25;;;;;;;44.17;18.38;;;-1.80;99.90;;;;;;5006918;28;20031;-80
2022/12/19 12:03:04;;;;;;;46.58;17.42;;;-1.80;99.90;;;;;;5009657;28;20542;-79
2022/12/19 12:05:47;;;;;;;48.40;19.35;;;-1.80;99.90;;;;;;4993881;28;20038;-80
2022/12/19 12:08:27;;;;;;;43.65;17.42;;;-1.80;99.90;;;;;;5010245;28;20038;-80
2022/12/19 12:11:19;;;;;;;43.50;18.55;;;-1.80;99.90;;;;;;4998334;28;20030;-79
2022/12/19 12:13:57;;;;;;;46.22;17.35;;;-1.70;99.90;;;;;;4989816;28;20124;-80
2022/12/19 12:16:42;;;;;;;51.97;20.52;;;-1.60;99.90;;;;;;5008734;28;20083;-80
2022/12/19 12:19:37;;;;;;;46.78;19.02;;;-1.60;99.90;;;;;;5010913;28;20034;-80
2022/12/19 12:22:02;;;;;;;45.47;18.50;;;-1.50;99.90;;;;;;5009815;28;20053;-80
2022/12/19 12:24:41;;;;;;;40.75;18.70;;;-1.50;99.90;;;;;;5009918;28;20038;-80
2022/12/19 12:27:42;;;;;;;42.20;18.65;;;-1.40;99.90;;;;;;5008840;28;20482;-80
2022/12/19 12:30:19;;;;;;;45.08;20.13;;;-1.40;99.90;;;;;;5012755;28;20034;-80
2022/12/19 12:32:54;;;;;;;43.88;18.48;;;-1.40;99.90;;;;;;5020919;28;20394;-79
2022/12/19 12:35:41;;;;;;;47.85;18.08;;;-1.40;99.90;;;;;;5009830;28;20057;-80
2022/12/19 12:38:38;;;;;;;43.55;17.35;;;-1.30;99.90;;;;;;5007126;28;20527;-80
2022/12/19 12:41:07;;;;;;;43.00;16.48;;;-1.30;99.90;;;;;;5009099;28;20066;-80
2022/12/19 12:43:58;;;;;;;46.08;18.58;;;-1.20;99.90;;;;;;5024280;28;20117;-80
2022/12/19 12:46:30;;;;;;;40.63;17.88;;;-1.20;99.90;;;;;;5007661;28;20042;-81
2022/12/19 12:49:05;;;;;;;38.92;16.20;;;-1.20;99.90;;;;;;5010873;28;20122;-80
2022/12/19 12:51:32;;;;;;;;;;;-1.20;99.90;;;;;;5008945;28;20034;-80
2022/12/19 12:54:03;;;;;;;49.35;17.98;;;-1.10;99.90;;;;;;5008272;28;19920;-80
2022/12/19 12:56:31;;;;;;;44.55;19.45;;;-1.10;99.90;;;;;;5004870;28;20030;-80
2022/12/19 12:58:59;;;;;;;47.92;18.40;;;-1.00;99.90;;;;;;4996074;28;20073;-81